createdAt,value
2019-06-07T00:01:53.094Z,13.16
2019-06-07T00:03:55.946Z,13.16
2019-06-07T00:05:58.835Z,13.16
2019-06-07T00:08:07.303Z,13.15
2019-06-07T00:10:36.344Z,13.13
2019-06-07T00:12:40.071Z,13.06
2019-06-07T00:14:42.870Z,13.02
2019-06-07T00:16:45.682Z,13.02
2019-06-07T00:18:48.531Z,12.94
2019-06-07T00:20:51.331Z,12.88
2019-06-07T00:22:54.190Z,12.93
2019-06-07T00:24:57.014Z,12.96
2019-06-07T00:26:59.868Z,12.95
2019-06-07T00:29:02.679Z,12.9
2019-06-07T00:31:05.506Z,12.81
2019-06-07T00:33:10.794Z,12.77
2019-06-07T00:35:26.233Z,12.77
2019-06-07T00:37:29.088Z,12.74
2019-06-07T00:39:31.824Z,12.71
2019-06-07T00:41:34.635Z,12.74
2019-06-07T00:43:37.476Z,12.72
2019-06-07T00:45:40.277Z,12.64
2019-06-07T00:47:43.121Z,12.65
2019-06-07T00:49:46.025Z,12.61
2019-06-07T00:51:50.928Z,12.59
2019-06-07T00:53:56.619Z,12.6
2019-06-07T00:55:59.406Z,12.57
2019-06-07T00:58:02.476Z,12.6
2019-06-07T01:00:05.495Z,12.6
2019-06-07T01:02:08.325Z,12.55
2019-06-07T01:04:12.970Z,12.47
2019-06-07T01:06:24.848Z,12.45
2019-06-07T01:08:30.042Z,12.38
2019-06-07T01:10:52.106Z,12.36
2019-06-07T01:12:57.045Z,12.4
2019-06-07T01:14:59.902Z,12.46
2019-06-07T01:17:22.418Z,12.46
2019-06-07T01:20:14.349Z,12.35
2019-06-07T01:22:27.411Z,12.36
2019-06-07T01:24:32.351Z,12.4
2019-06-07T01:26:35.068Z,12.39
2019-06-07T01:28:37.819Z,12.37
2019-06-07T01:30:40.700Z,12.35
2019-06-07T01:32:43.509Z,12.38
2019-06-07T01:34:46.377Z,12.41
2019-06-07T01:36:49.125Z,12.39
2019-06-07T01:38:51.975Z,12.37
2019-06-07T01:40:55.079Z,12.35
2019-06-07T01:42:57.926Z,12.34
2019-06-07T01:45:00.733Z,12.3
2019-06-07T01:47:03.591Z,12.27
2019-06-07T01:49:06.341Z,12.32
2019-06-07T01:51:09.149Z,12.34
2019-06-07T01:53:11.932Z,12.37
2019-06-07T01:55:14.785Z,12.36
2019-06-07T01:57:33.937Z,12.3
2019-06-07T01:59:51.151Z,12.23
2019-06-07T02:01:53.945Z,12.26
2019-06-07T02:03:56.702Z,12.26
2019-06-07T02:05:59.488Z,12.19
2019-06-07T02:08:02.293Z,12.22
2019-06-07T02:10:05.116Z,12.16
2019-06-07T02:12:24.974Z,12.07
2019-06-07T02:14:45.606Z,12.13
2019-06-07T02:16:48.425Z,12.13
2019-06-07T02:19:01.478Z,12.18
2019-06-07T02:21:06.549Z,12.15
2019-06-07T02:23:09.371Z,12.08
2019-06-07T02:28:08.820Z,12.03
2019-06-07T02:30:59.355Z,12.03
2019-06-07T02:33:03.510Z,11.96
2019-06-07T02:35:06.398Z,11.96
2019-06-07T02:37:09.250Z,11.95
2019-06-07T02:39:12.057Z,11.91
2019-06-07T02:41:14.884Z,11.91
2019-06-07T02:43:17.720Z,11.89
2019-06-07T02:45:20.471Z,11.85
2019-06-07T02:47:35.839Z,11.84
2019-06-07T02:49:42.313Z,11.82
2019-06-07T02:51:47.320Z,11.8
2019-06-07T02:53:50.107Z,11.75
2019-06-07T02:56:34.727Z,11.73
2019-06-07T02:59:01.035Z,11.66
2019-06-07T03:01:08.778Z,11.67
2019-06-07T03:03:12.891Z,11.66
2019-06-07T03:05:15.734Z,11.63
2019-06-07T03:07:18.509Z,11.62
2019-06-07T03:09:21.343Z,11.62
2019-06-07T03:11:24.162Z,11.62
2019-06-07T03:13:28.841Z,11.6
2019-06-07T03:15:45.286Z,11.54
2019-06-07T03:17:52.975Z,11.56
2019-06-07T03:19:55.799Z,11.58
2019-06-07T03:21:58.687Z,11.57
2019-06-07T03:24:01.421Z,11.55
2019-06-07T03:26:04.248Z,11.55
2019-06-07T03:28:07.059Z,11.53
2019-06-07T03:30:35.789Z,11.53
2019-06-07T03:33:04.447Z,11.53
2019-06-07T03:35:07.360Z,11.57
2019-06-07T03:37:10.186Z,11.59
2019-06-07T03:39:12.903Z,11.55
2019-06-07T03:41:15.774Z,11.5
2019-06-07T03:43:18.808Z,11.48
2019-06-07T03:45:21.613Z,11.49
2019-06-07T03:47:24.359Z,11.52
2019-06-07T03:49:27.913Z,11.53
2019-06-07T03:51:41.458Z,11.5
2019-06-07T03:53:44.235Z,11.48
2019-06-07T03:55:47.017Z,11.47
2019-06-07T04:00:52.927Z,11.48
2019-06-07T04:02:55.711Z,11.48
2019-06-07T04:04:58.413Z,11.5
2019-06-07T04:07:01.312Z,11.52
2019-06-07T04:09:04.066Z,11.52
2019-06-07T04:11:06.832Z,11.56
2019-06-07T04:13:09.686Z,11.57
2019-06-07T04:15:12.501Z,11.58
2019-06-07T04:17:15.496Z,11.55
2019-06-07T04:19:18.285Z,11.56
2019-06-07T04:21:21.157Z,11.47
2019-06-07T04:23:28.054Z,11.51
2019-06-07T04:25:42.586Z,11.55
2019-06-07T04:27:45.666Z,11.49
2019-06-07T04:30:06.288Z,11.55
2019-06-07T04:32:10.997Z,11.58
2019-06-07T04:34:13.783Z,11.57
2019-06-07T04:36:16.561Z,11.51
2019-06-07T04:38:19.360Z,11.51
2019-06-07T04:40:22.113Z,11.53
2019-06-07T04:42:24.847Z,11.53
2019-06-07T04:44:28.839Z,11.61
2019-06-07T04:46:35.067Z,11.67
2019-06-07T04:48:45.359Z,11.71
2019-06-07T04:50:48.215Z,11.76
2019-06-07T04:52:51.147Z,11.75
2019-06-07T04:54:53.945Z,11.76
2019-06-07T04:56:56.678Z,11.8
2019-06-07T04:58:59.484Z,11.83
2019-06-07T05:01:03.593Z,11.8
2019-06-07T05:03:06.585Z,11.8
2019-06-07T05:05:09.378Z,11.8
2019-06-07T05:07:12.203Z,11.79
2019-06-07T05:09:15.030Z,11.81
2019-06-07T05:11:18.017Z,11.86
2019-06-07T05:13:20.826Z,11.87
2019-06-07T05:15:23.629Z,11.85
2019-06-07T05:17:26.433Z,11.9
2019-06-07T05:19:30.503Z,11.94
2019-06-07T05:21:59.743Z,11.99
2019-06-07T05:24:10.464Z,11.98
2019-06-07T05:26:13.623Z,11.98
2019-06-07T05:28:16.409Z,12.01
2019-06-07T05:30:58.350Z,12.05
2019-06-07T05:33:10.436Z,12.07
2019-06-07T05:35:13.314Z,12.1
2019-06-07T05:37:16.220Z,12.06
2019-06-07T05:39:19.017Z,12.12
2019-06-07T05:41:21.897Z,12.17
2019-06-07T05:43:24.756Z,12.21
2019-06-07T05:45:27.625Z,12.26
2019-06-07T05:47:30.419Z,12.3
2019-06-07T05:49:36.289Z,12.36
2019-06-07T05:51:49.512Z,12.36
2019-06-07T05:53:52.302Z,12.37
2019-06-07T05:55:55.174Z,12.39
2019-06-07T05:57:57.961Z,12.38
2019-06-07T06:00:00.914Z,12.38
2019-06-07T06:02:21.422Z,12.4
2019-06-07T06:04:27.562Z,12.41
2019-06-07T06:06:30.437Z,12.41
2019-06-07T06:08:36.510Z,12.48
2019-06-07T06:10:48.784Z,12.49
2019-06-07T06:12:52.202Z,12.54
2019-06-07T06:14:54.949Z,12.6
2019-06-07T06:16:57.700Z,12.63
2019-06-07T06:19:00.495Z,12.68
2019-06-07T06:21:15.957Z,12.74
2019-06-07T06:23:23.361Z,12.77
2019-06-07T06:25:32.191Z,12.82
2019-06-07T06:30:18.017Z,12.9
2019-06-07T06:35:01.409Z,13.11
2019-06-07T06:37:04.464Z,13.19
2019-06-07T06:39:07.261Z,13.24
2019-06-07T06:41:15.589Z,13.33
2019-06-07T06:43:19.847Z,13.4
2019-06-07T06:45:22.617Z,13.46
2019-06-07T06:47:25.463Z,13.51
2019-06-07T06:49:28.251Z,13.63
2019-06-07T06:51:30.983Z,13.63
2019-06-07T06:53:33.884Z,13.61
2019-06-07T06:55:36.702Z,13.65
2019-06-07T06:57:40.558Z,13.67
2019-06-07T06:59:49.572Z,13.73
2019-06-07T07:01:55.321Z,13.77
2019-06-07T07:04:10.997Z,13.89
2019-06-07T07:06:25.667Z,14.04
2019-06-07T07:08:29.787Z,14.1
2019-06-07T07:10:32.641Z,14.22
2019-06-07T07:12:35.361Z,14.28
2019-06-07T07:14:38.103Z,14.34
2019-06-07T07:16:42.163Z,14.37
2019-06-07T07:18:58.312Z,14.44
2019-06-07T07:21:01.135Z,14.59
2019-06-07T07:23:03.951Z,14.84
2019-06-07T07:25:06.860Z,14.9
2019-06-07T07:27:09.697Z,14.85
2019-06-07T07:29:12.522Z,14.9
2019-06-07T07:31:15.422Z,14.88
2019-06-07T07:33:18.233Z,14.85
2019-06-07T07:35:20.987Z,14.88
2019-06-07T07:37:23.842Z,14.98
2019-06-07T07:39:26.695Z,15.01
2019-06-07T07:41:29.569Z,15.02
2019-06-07T07:43:32.418Z,15.18
2019-06-07T07:45:35.220Z,15.22
2019-06-07T07:47:58.128Z,15.29
2019-06-07T07:50:21.120Z,15.39
2019-06-07T07:52:23.997Z,15.39
2019-06-07T07:54:26.940Z,15.47
2019-06-07T07:56:29.763Z,15.53
2019-06-07T07:58:32.642Z,15.59
2019-06-07T08:00:59.969Z,15.61
2019-06-07T08:03:13.860Z,15.74
2019-06-07T08:05:25.455Z,15.79
2019-06-07T08:07:51.270Z,15.88
2019-06-07T08:10:06.264Z,15.91
2019-06-07T08:12:09.014Z,15.93
2019-06-07T08:14:11.923Z,15.9
2019-06-07T08:16:18.493Z,15.93
2019-06-07T08:18:21.880Z,16.07
2019-06-07T08:20:24.747Z,16.07
2019-06-07T08:22:27.491Z,16.05
2019-06-07T08:24:30.333Z,16.21
2019-06-07T08:26:33.100Z,16.31
2019-06-07T08:28:35.957Z,16.35
2019-06-07T08:31:00.733Z,16.41
2019-06-07T08:33:25.158Z,16.59
2019-06-07T08:36:03.518Z,16.8
2019-06-07T08:38:47.800Z,17.06
2019-06-07T08:41:11.348Z,17.21
2019-06-07T08:43:20.511Z,17.27
2019-06-07T08:45:24.021Z,17.3
2019-06-07T08:47:26.830Z,17.43
2019-06-07T08:49:29.670Z,17.5
2019-06-07T08:51:32.508Z,17.58
2019-06-07T08:53:35.263Z,17.65
2019-06-07T08:55:38.170Z,17.71
2019-06-07T08:57:40.985Z,17.81
2019-06-07T08:59:43.808Z,17.97
2019-06-07T09:01:46.671Z,18.06
2019-06-07T09:03:49.464Z,18.04
2019-06-07T09:05:54.085Z,18.03
2019-06-07T09:08:58.844Z,18.24
2019-06-07T09:11:11.037Z,18.4
2019-06-07T09:13:14.480Z,18.44
2019-06-07T09:15:23.085Z,18.32
2019-06-07T09:17:27.297Z,18.37
2019-06-07T09:19:30.093Z,18.41
2019-06-07T09:21:32.976Z,18.4
2019-06-07T09:23:35.758Z,18.37
2019-06-07T09:25:55.798Z,18.36
2019-06-07T09:28:21.049Z,18.36
2019-06-07T09:30:23.856Z,18.24
2019-06-07T09:32:26.640Z,18.31
2019-06-07T09:34:29.370Z,18.26
2019-06-07T09:36:32.157Z,18.29
2019-06-07T09:38:35.051Z,18.26
2019-06-07T09:40:37.922Z,18.35
2019-06-07T09:42:40.748Z,18.43
2019-06-07T09:44:43.608Z,18.53
2019-06-07T09:46:46.436Z,18.59
2019-06-07T09:51:35.889Z,18.65
2019-06-07T09:53:38.707Z,18.74
2019-06-07T09:55:41.551Z,18.63
2019-06-07T09:57:44.351Z,18.63
2019-06-07T09:59:47.188Z,18.76
2019-06-07T10:01:49.992Z,18.85
2019-06-07T10:03:52.864Z,19.11
2019-06-07T10:05:55.665Z,19.21
2019-06-07T10:08:15.926Z,19.34
2019-06-07T10:12:19.630Z,19.3
2019-06-07T10:14:22.520Z,19.35
2019-06-07T10:16:25.327Z,19.34
2019-06-07T10:18:28.070Z,19.49
2019-06-07T10:20:30.895Z,19.7
2019-06-07T10:22:33.671Z,19.69
2019-06-07T10:24:36.568Z,19.82
2019-06-07T10:26:39.441Z,19.88
2019-06-07T10:28:42.362Z,19.91
2019-06-07T10:30:45.235Z,19.94
2019-06-07T10:32:51.849Z,19.81
2019-06-07T10:34:54.938Z,20.04
2019-06-07T10:36:57.743Z,20.42
2019-06-07T10:39:00.746Z,20.75
2019-06-07T10:41:05.296Z,20.89
2019-06-07T10:43:12.487Z,20.96
2019-06-07T10:45:17.225Z,20.87
2019-06-07T10:47:20.093Z,20.8
2019-06-07T10:49:22.872Z,20.71
2019-06-07T10:51:25.725Z,20.7
2019-06-07T10:53:28.549Z,20.8
2019-06-07T10:55:31.391Z,20.85
2019-06-07T10:57:34.257Z,20.87
2019-06-07T10:59:37.049Z,20.89
2019-06-07T11:01:39.870Z,20.92
2019-06-07T11:03:42.745Z,21
2019-06-07T11:05:45.606Z,21.1
2019-06-07T11:07:48.421Z,21.17
2019-06-07T11:10:05.580Z,21.24
2019-06-07T11:12:22.080Z,21.32
2019-06-07T11:14:25.118Z,21.38
2019-06-07T11:16:27.937Z,21.48
2019-06-07T11:18:30.803Z,21.68
2019-06-07T11:20:33.541Z,21.87
2019-06-07T11:22:36.271Z,22.09
2019-06-07T11:24:39.062Z,22.18
2019-06-07T11:26:41.791Z,21.98
2019-06-07T11:28:44.607Z,21.87
2019-06-07T11:30:47.566Z,21.92
2019-06-07T11:32:50.368Z,22
2019-06-07T11:34:53.448Z,22.18
2019-06-07T11:36:56.208Z,22.13
2019-06-07T11:38:59.097Z,22.1
2019-06-07T11:41:01.875Z,22.37
2019-06-07T11:43:04.635Z,22.52
2019-06-07T11:45:07.895Z,22.58
2019-06-07T11:47:14.403Z,22.74
2019-06-07T11:49:20.192Z,22.76
2019-06-07T11:51:24.897Z,22.91
2019-06-07T11:53:27.693Z,22.97
2019-06-07T11:55:30.716Z,22.92
2019-06-07T11:57:33.463Z,22.84
2019-06-07T11:59:36.223Z,22.7
2019-06-07T12:01:39.124Z,22.78
2019-06-07T12:03:41.961Z,22.94
2019-06-07T12:05:44.726Z,22.97
2019-06-07T12:07:47.530Z,22.93
2019-06-07T12:09:56.209Z,22.74
2019-06-07T12:11:59.745Z,22.91
2019-06-07T12:14:02.557Z,23.03
2019-06-07T12:16:05.343Z,23.02
2019-06-07T12:18:09.187Z,23
2019-06-07T12:20:15.153Z,22.93
2019-06-07T12:22:23.502Z,22.83
2019-06-07T12:24:26.256Z,23.04
2019-06-07T12:26:29.102Z,23.14
2019-06-07T12:28:32.082Z,23.25
2019-06-07T12:30:34.985Z,23.24
2019-06-07T12:32:38.092Z,23.19
2019-06-07T12:34:41.123Z,23.18
2019-06-07T12:36:43.943Z,23.06
2019-06-07T12:38:46.888Z,22.91
2019-06-07T12:40:57.423Z,22.85
2019-06-07T12:43:00.806Z,22.86
2019-06-07T12:45:03.699Z,22.89
2019-06-07T12:47:06.501Z,22.88
2019-06-07T12:49:09.282Z,22.79
2019-06-07T12:51:13.127Z,22.82
2019-06-07T12:53:17.898Z,22.83
2019-06-07T12:55:30.687Z,22.87
2019-06-07T12:57:33.686Z,23.07
2019-06-07T12:59:36.623Z,23.33
2019-06-07T13:01:39.371Z,23.53
2019-06-07T13:03:42.142Z,23.51
2019-06-07T13:05:45.026Z,23.48
2019-06-07T13:07:47.833Z,23.57
2019-06-07T13:09:50.694Z,23.59
2019-06-07T13:11:53.692Z,23.68
2019-06-07T13:13:56.508Z,23.55
2019-06-07T13:15:59.385Z,23.52
2019-06-07T13:18:02.207Z,23.65
2019-06-07T13:20:05.157Z,23.66
2019-06-07T13:22:08.437Z,23.76
2019-06-07T13:24:11.362Z,23.72
2019-06-07T13:26:14.220Z,23.71
2019-06-07T13:28:17.545Z,23.6
2019-06-07T13:30:25.393Z,23.6
2019-06-07T13:32:28.450Z,23.83
2019-06-07T13:34:31.342Z,23.93
2019-06-07T13:36:34.283Z,23.96
2019-06-07T13:38:37.077Z,23.98
2019-06-07T13:40:39.897Z,23.95
2019-06-07T13:42:42.861Z,23.91
2019-06-07T13:44:45.654Z,24.01
2019-06-07T13:46:48.463Z,24.14
2019-06-07T13:48:51.460Z,24.12
2019-06-07T13:50:54.377Z,24.18
2019-06-07T13:52:57.250Z,24.12
2019-06-07T13:55:02.215Z,24.2
2019-06-07T13:57:05.609Z,24.32
2019-06-07T13:59:08.538Z,24.26
2019-06-07T14:01:11.354Z,24.49
2019-06-07T14:03:14.255Z,24.62
2019-06-07T14:05:17.040Z,24.68
2019-06-07T14:07:21.370Z,24.73
2019-06-07T14:09:29.712Z,24.77
2019-06-07T14:11:49.343Z,24.67
2019-06-07T14:13:53.812Z,24.78
2019-06-07T14:15:56.708Z,24.86
2019-06-07T14:17:59.517Z,24.84
2019-06-07T14:20:02.840Z,24.7
2019-06-07T14:22:06.460Z,24.61
2019-06-07T14:24:09.367Z,24.59
2019-06-07T14:26:12.227Z,24.47
2019-06-07T14:28:15.058Z,24.38
2019-06-07T14:30:17.990Z,24.35
2019-06-07T14:32:22.564Z,24.3
2019-06-07T14:34:28.950Z,24.24
2019-06-07T14:36:33.448Z,24.13
2019-06-07T14:38:37.552Z,24.11
2019-06-07T14:40:40.843Z,24.1
2019-06-07T14:42:43.663Z,24.1
2019-06-07T14:44:46.510Z,24.06
2019-06-07T14:46:49.362Z,23.76
2019-06-07T14:48:52.194Z,23.22
2019-06-07T14:50:55.054Z,23
2019-06-07T14:52:58.119Z,22.98
2019-06-07T14:55:01.062Z,22.83
2019-06-07T14:57:03.972Z,22.78
2019-06-07T14:59:06.872Z,22.63
2019-06-07T15:01:09.782Z,22.57
2019-06-07T15:03:12.652Z,22.28
2019-06-07T15:05:15.471Z,22.04
2019-06-07T15:07:18.350Z,21.78
2019-06-07T15:09:21.315Z,21.22
2019-06-07T15:11:24.144Z,20.86
2019-06-07T15:13:27.527Z,20.62
2019-06-07T15:15:34.574Z,20.58
2019-06-07T15:17:38.816Z,20.41
2019-06-07T15:19:42.020Z,20.48
2019-06-07T15:21:44.980Z,20.66
2019-06-07T15:23:47.824Z,20.66
2019-06-07T15:25:50.695Z,20.68
2019-06-07T15:27:53.628Z,20.87
2019-06-07T15:29:56.538Z,20.81
2019-06-07T15:31:59.353Z,20.98
2019-06-07T15:34:02.266Z,21.03
2019-06-07T15:36:05.267Z,21.13
2019-06-07T15:38:08.213Z,21.21
2019-06-07T15:40:11.206Z,21.27
2019-06-07T15:42:14.211Z,21.39
2019-06-07T15:44:17.225Z,21.27
2019-06-07T15:46:20.008Z,21.18
2019-06-07T15:48:22.828Z,20.95
2019-06-07T15:50:28.680Z,20.75
2019-06-07T15:52:35.485Z,20.6
2019-06-07T15:54:40.797Z,20.35
2019-06-07T15:56:43.552Z,20.06
2019-06-07T15:58:46.409Z,19.7
2019-06-07T16:00:50.148Z,19.43
2019-06-07T16:02:53.055Z,19.43
2019-06-07T16:04:55.878Z,19.2
2019-06-07T16:06:58.622Z,19.02
2019-06-07T16:09:01.372Z,18.86
2019-06-07T16:11:04.262Z,18.79
2019-06-07T16:13:07.243Z,18.86
2019-06-07T16:15:10.185Z,18.72
2019-06-07T16:17:13.007Z,18.6
2019-06-07T16:19:15.821Z,18.49
2019-06-07T16:21:18.671Z,18.62
2019-06-07T16:23:21.476Z,18.51
2019-06-07T16:25:24.419Z,18.62
2019-06-07T16:27:27.323Z,18.47
2019-06-07T16:29:30.106Z,18.42
2019-06-07T16:31:32.971Z,18.37
2019-06-07T16:33:38.937Z,18.48
2019-06-07T16:35:43.113Z,18.41
2019-06-07T16:37:50.190Z,18.37
2019-06-07T16:39:55.252Z,18.46
2019-06-07T16:41:58.139Z,18.37
2019-06-07T16:44:00.950Z,18.08
2019-06-07T16:46:04.089Z,18.08
2019-06-07T16:48:06.951Z,18.01
2019-06-07T16:50:09.837Z,17.99
2019-06-07T16:52:12.725Z,17.89
2019-06-07T16:54:15.685Z,17.77
2019-06-07T16:56:18.799Z,17.75
2019-06-07T16:58:21.790Z,17.75
2019-06-07T17:00:24.619Z,17.67
2019-06-07T17:02:27.460Z,17.69
2019-06-07T17:04:30.198Z,17.71
2019-06-07T17:06:32.936Z,17.48
2019-06-07T17:08:35.748Z,17.46
2019-06-07T17:10:38.574Z,17.51
2019-06-07T17:12:42.957Z,17.33
2019-06-07T17:14:49.278Z,17.29
2019-06-07T17:16:52.170Z,17.39
2019-06-07T17:18:55.047Z,17.36
2019-06-07T17:20:57.929Z,17.33
2019-06-07T17:23:00.838Z,17.35
2019-06-07T17:25:03.603Z,17.3
2019-06-07T17:27:06.425Z,17.27
2019-06-07T17:29:09.245Z,17.3
2019-06-07T17:31:12.117Z,17.31
2019-06-07T17:33:14.880Z,17.31
2019-06-07T17:35:17.669Z,17.3
2019-06-07T17:37:20.464Z,17.24
2019-06-07T17:39:23.239Z,17.19
2019-06-07T17:41:26.284Z,17.15
2019-06-07T17:43:29.080Z,17.12
2019-06-07T17:45:32.011Z,17.04
2019-06-07T17:47:34.830Z,17.12
2019-06-07T17:49:37.707Z,17.14
2019-06-07T17:51:41.682Z,17.12
2019-06-07T17:53:47.722Z,17.03
2019-06-07T17:55:50.639Z,17.03
2019-06-07T17:57:55.113Z,17.02
2019-06-07T17:59:57.895Z,16.99
2019-06-07T18:02:13.899Z,17.01
2019-06-07T18:04:18.332Z,17.02
2019-06-07T18:06:21.144Z,16.96
2019-06-07T18:08:23.963Z,16.87
2019-06-07T18:10:26.716Z,16.86
2019-06-07T18:12:29.649Z,16.86
2019-06-07T18:14:32.542Z,16.81
2019-06-07T18:16:35.318Z,16.74
2019-06-07T18:18:38.112Z,16.75
2019-06-07T18:20:40.831Z,16.75
2019-06-07T18:22:44.969Z,16.75
2019-06-07T18:24:48.483Z,16.72
2019-06-07T18:26:52.944Z,16.76
2019-06-07T18:28:57.240Z,16.8
2019-06-07T18:31:01.848Z,16.77
2019-06-07T18:33:04.665Z,16.74
2019-06-07T18:35:07.489Z,16.74
2019-06-07T18:37:10.327Z,16.73
2019-06-07T18:39:13.102Z,16.72
2019-06-07T18:41:15.889Z,16.7
2019-06-07T18:43:18.773Z,16.59
2019-06-07T18:45:21.673Z,16.62
2019-06-07T18:47:24.531Z,16.62
2019-06-07T18:49:27.390Z,16.55
2019-06-07T18:51:30.207Z,16.48
2019-06-07T18:53:33.193Z,16.51
2019-06-07T18:55:36.066Z,16.54
2019-06-07T18:57:39.084Z,16.52
2019-06-07T18:59:41.994Z,16.4
2019-06-07T19:01:44.901Z,16.41
2019-06-07T19:03:48.974Z,16.45
2019-06-07T19:05:54.382Z,16.32
2019-06-07T19:07:59.644Z,16.33
2019-06-07T19:10:03.028Z,16.24
2019-06-07T19:12:05.820Z,16.21
2019-06-07T19:14:08.594Z,16.24
2019-06-07T19:16:11.351Z,16.16
2019-06-07T19:18:14.141Z,16.2
2019-06-07T19:20:16.980Z,16.27
2019-06-07T19:22:19.722Z,16.19
2019-06-07T19:24:22.584Z,16.12
2019-06-07T19:26:25.361Z,16.13
2019-06-07T19:28:28.096Z,16.12
2019-06-07T19:30:30.872Z,16.11
2019-06-07T19:32:33.724Z,16.07
2019-06-07T19:34:36.580Z,16.1
2019-06-07T19:36:48.229Z,16.09
2019-06-07T19:38:53.844Z,16.09
2019-06-07T19:40:58.113Z,16.03
2019-06-07T19:43:22.293Z,16.06
2019-06-07T19:45:30.076Z,16.01
2019-06-07T19:47:34.413Z,15.98
2019-06-07T19:49:37.237Z,16.02
2019-06-07T19:51:40.167Z,16.03
2019-06-07T19:53:43.000Z,15.95
2019-06-07T19:55:45.893Z,15.96
2019-06-07T19:57:50.128Z,15.96
2019-06-07T19:59:53.337Z,16
2019-06-07T20:01:57.916Z,16.01
2019-06-07T20:04:02.547Z,15.93
2019-06-07T20:06:06.900Z,15.86
2019-06-07T20:08:09.704Z,15.92
2019-06-07T20:10:17.539Z,15.99
2019-06-07T20:12:20.329Z,16.02
2019-06-07T20:14:23.064Z,16.09
2019-06-07T20:16:25.880Z,16.06
2019-06-07T20:18:28.762Z,16.02
2019-06-07T20:20:31.594Z,15.98
2019-06-07T20:22:34.317Z,16.03
2019-06-07T20:24:38.102Z,16.01
2019-06-07T20:26:40.977Z,15.98
2019-06-07T20:28:43.710Z,15.97
2019-06-07T20:30:46.497Z,15.87
2019-06-07T20:32:49.297Z,15.82
2019-06-07T20:34:52.103Z,15.86
2019-06-07T20:36:54.963Z,15.87
2019-06-07T20:38:57.972Z,15.79
2019-06-07T20:41:03.225Z,15.78
2019-06-07T20:43:06.007Z,15.75
2019-06-07T20:45:10.609Z,15.71
2019-06-07T20:47:13.470Z,15.67
2019-06-07T20:49:16.255Z,15.69
2019-06-07T20:51:19.038Z,15.7
2019-06-07T20:53:21.763Z,15.69
2019-06-07T20:55:24.512Z,15.61
2019-06-07T20:57:27.343Z,15.61
2019-06-07T20:59:30.155Z,15.56
2019-06-07T21:01:33.024Z,15.56
2019-06-07T21:03:35.924Z,15.53
2019-06-07T21:05:38.735Z,15.46
2019-06-07T21:07:41.553Z,15.46
2019-06-07T21:09:44.297Z,15.53
2019-06-07T21:11:47.056Z,15.44
2019-06-07T21:13:49.871Z,15.51
2019-06-07T21:15:52.593Z,15.5
2019-06-07T21:17:55.456Z,15.48
2019-06-07T21:19:58.342Z,15.52
2019-06-07T21:22:02.762Z,15.48
2019-06-07T21:24:06.951Z,15.46
2019-06-07T21:26:11.170Z,15.51
2019-06-07T21:28:14.037Z,15.5
2019-06-07T21:30:16.843Z,15.48
2019-06-07T21:32:19.637Z,15.45
2019-06-07T21:34:22.422Z,15.44
2019-06-07T21:36:25.150Z,15.4
2019-06-07T21:38:27.927Z,15.44
2019-06-07T21:40:30.719Z,15.47
2019-06-07T21:42:33.520Z,15.44
2019-06-07T21:44:36.379Z,15.44
2019-06-07T21:46:39.189Z,15.44
2019-06-07T21:48:42.107Z,15.5
2019-06-07T21:50:44.913Z,15.55
2019-06-07T21:52:47.682Z,15.6
2019-06-07T21:54:50.562Z,15.59
2019-06-07T21:56:53.373Z,15.57
2019-06-07T21:58:56.237Z,15.56
2019-06-07T22:00:59.057Z,15.58
2019-06-07T22:03:03.221Z,15.61
2019-06-07T22:05:07.338Z,15.67
2019-06-07T22:07:11.468Z,15.71
2019-06-07T22:09:14.721Z,15.69
2019-06-07T22:11:17.593Z,15.7
2019-06-07T22:13:20.468Z,15.69
2019-06-07T22:15:32.388Z,15.65
2019-06-07T22:17:40.034Z,15.7
2019-06-07T22:19:42.891Z,15.71
2019-06-07T22:21:59.173Z,15.7
2019-06-07T22:24:08.870Z,15.68
2019-06-07T22:26:13.383Z,15.65
2019-06-07T22:28:18.480Z,15.65
2019-06-07T22:30:21.445Z,15.63
2019-06-07T22:32:24.236Z,15.62
2019-06-07T22:34:27.067Z,15.63
2019-06-07T22:36:29.818Z,15.57
2019-06-07T22:38:32.640Z,15.59
2019-06-07T22:40:35.538Z,15.56
2019-06-07T22:42:38.479Z,15.59
2019-06-07T22:44:41.402Z,15.61
2019-06-07T22:46:44.264Z,15.61
2019-06-07T22:48:47.083Z,15.6
2019-06-07T22:50:49.935Z,15.62
2019-06-07T22:52:52.739Z,15.59
2019-06-07T22:54:55.630Z,15.53
2019-06-07T22:56:58.464Z,15.59
2019-06-07T22:59:01.188Z,15.66
2019-06-07T23:01:03.990Z,15.68
2019-06-07T23:03:06.774Z,15.67
2019-06-07T23:05:11.123Z,15.64
2019-06-07T23:07:15.379Z,15.63
2019-06-07T23:09:19.822Z,15.63
2019-06-07T23:11:22.726Z,15.63
2019-06-07T23:13:25.534Z,15.62
2019-06-07T23:15:28.406Z,15.55
2019-06-07T23:17:31.198Z,15.55
2019-06-07T23:19:34.004Z,15.59
2019-06-07T23:21:36.851Z,15.6
2019-06-07T23:23:39.587Z,15.59
2019-06-07T23:25:42.323Z,15.55
2019-06-07T23:27:45.186Z,15.52
2019-06-07T23:29:47.968Z,15.55
2019-06-07T23:31:50.930Z,15.55
2019-06-07T23:33:53.969Z,15.52
2019-06-07T23:35:56.820Z,15.52
2019-06-07T23:37:59.688Z,15.49
2019-06-07T23:40:02.457Z,15.44
2019-06-07T23:42:05.313Z,15.36
2019-06-07T23:44:08.072Z,15.45
2019-06-07T23:46:11.402Z,15.46
2019-06-07T23:48:15.745Z,15.38
2019-06-07T23:50:19.913Z,15.41
2019-06-07T23:52:24.250Z,15.35
2019-06-07T23:54:26.984Z,15.34
2019-06-07T23:56:29.733Z,15.35
2019-06-07T23:58:32.628Z,15.42
